sensor_id;sensor_type;location;lat;lon;timestamp;P1;durP1;ratioP1;P2;durP2;ratioP2
26594;SDS011;14238;49.496;8.154;2023-07-29T00:01:59;3.10;;;2.90;;
26594;SDS011;14238;49.496;8.154;2023-07-29T00:04:25;2.70;;;2.47;;
26594;SDS011;14238;49.496;8.154;2023-07-29T00:06:50;3.37;;;3.10;;
26594;SDS011;14238;49.496;8.154;2023-07-29T00:09:16;5.70;;;3.17;;
26594;SDS011;14238;49.496;8.154;2023-07-29T00:11:41;4.13;;;3.10;;
26594;SDS011;14238;49.496;8.154;2023-07-29T00:14:07;3.63;;;3.43;;
26594;SDS011;14238;49.496;8.154;2023-07-29T00:16:32;3.63;;;3.30;;
26594;SDS011;14238;49.496;8.154;2023-07-29T00:18:58;3.93;;;3.73;;
26594;SDS011;14238;49.496;8.154;2023-07-29T00:21:23;3.63;;;3.43;;
26594;SDS011;14238;49.496;8.154;2023-07-29T00:23:49;3.80;;;3.50;;
26594;SDS011;14238;49.496;8.154;2023-07-29T00:26:15;7.50;;;4.80;;
26594;SDS011;14238;49.496;8.154;2023-07-29T00:28:40;5.00;;;4.60;;
26594;SDS011;14238;49.496;8.154;2023-07-29T00:31:06;5.20;;;4.70;;
26594;SDS011;14238;49.496;8.154;2023-07-29T00:33:31;6.90;;;4.43;;
26594;SDS011;14238;49.496;8.154;2023-07-29T00:35:57;5.00;;;4.70;;
26594;SDS011;14238;49.496;8.154;2023-07-29T00:38:26;5.50;;;5.00;;
26594;SDS011;14238;49.496;8.154;2023-07-29T00:40:52;7.67;;;5.40;;
26594;SDS011;14238;49.496;8.154;2023-07-29T00:43:18;4.83;;;4.23;;
26594;SDS011;14238;49.496;8.154;2023-07-29T00:45:43;4.33;;;4.13;;
26594;SDS011;14238;49.496;8.154;2023-07-29T00:48:10;6.93;;;5.17;;
26594;SDS011;14238;49.496;8.154;2023-07-29T00:50:35;5.07;;;4.77;;
26594;SDS011;14238;49.496;8.154;2023-07-29T00:53:01;5.70;;;5.23;;
26594;SDS011;14238;49.496;8.154;2023-07-29T00:55:26;6.03;;;5.63;;
26594;SDS011;14238;49.496;8.154;2023-07-29T00:57:53;4.83;;;4.43;;
26594;SDS011;14238;49.496;8.154;2023-07-29T01:00:19;4.80;;;4.60;;
26594;SDS011;14238;49.496;8.154;2023-07-29T01:02:46;5.60;;;4.77;;
26594;SDS011;14238;49.496;8.154;2023-07-29T01:05:12;4.50;;;3.10;;
26594;SDS011;14238;49.496;8.154;2023-07-29T01:07:41;5.40;;;2.70;;
26594;SDS011;14238;49.496;8.154;2023-07-29T01:12:51;2.47;;;2.33;;
26594;SDS011;14238;49.496;8.154;2023-07-29T01:15:33;2.70;;;2.50;;
26594;SDS011;14238;49.496;8.154;2023-07-29T01:18:08;2.50;;;2.40;;
26594;SDS011;14238;49.496;8.154;2023-07-29T01:20:43;3.57;;;2.40;;
26594;SDS011;14238;49.496;8.154;2023-07-29T01:23:11;2.33;;;1.87;;
26594;SDS011;14238;49.496;8.154;2023-07-29T01:25:36;2.60;;;2.17;;
26594;SDS011;14238;49.496;8.154;2023-07-29T01:28:02;3.00;;;1.97;;
26594;SDS011;14238;49.496;8.154;2023-07-29T01:30:33;2.07;;;1.90;;
26594;SDS011;14238;49.496;8.154;2023-07-29T01:33:06;3.13;;;1.90;;
26594;SDS011;14238;49.496;8.154;2023-07-29T01:35:45;2.80;;;2.30;;
26594;SDS011;14238;49.496;8.154;2023-07-29T01:38:28;2.33;;;2.13;;
26594;SDS011;14238;49.496;8.154;2023-07-29T01:40:58;3.20;;;1.83;;
26594;SDS011;14238;49.496;8.154;2023-07-29T01:43:29;4.17;;;1.90;;
26594;SDS011;14238;49.496;8.154;2023-07-29T01:45:56;2.20;;;2.00;;
26594;SDS011;14238;49.496;8.154;2023-07-29T01:48:22;1.90;;;1.80;;
26594;SDS011;14238;49.496;8.154;2023-07-29T01:50:47;2.50;;;1.93;;
26594;SDS011;14238;49.496;8.154;2023-07-29T01:53:13;2.23;;;2.03;;
26594;SDS011;14238;49.496;8.154;2023-07-29T01:55:39;2.03;;;1.80;;
26594;SDS011;14238;49.496;8.154;2023-07-29T01:58:04;2.53;;;2.03;;
26594;SDS011;14238;49.496;8.154;2023-07-29T02:00:30;2.17;;;2.07;;
26594;SDS011;14238;49.496;8.154;2023-07-29T02:02:55;4.60;;;2.30;;
26594;SDS011;14238;49.496;8.154;2023-07-29T02:05:21;1.80;;;1.70;;
26594;SDS011;14238;49.496;8.154;2023-07-29T02:07:46;2.33;;;2.23;;
26594;SDS011;14238;49.496;8.154;2023-07-29T02:10:12;1.80;;;1.70;;
26594;SDS011;14238;49.496;8.154;2023-07-29T02:12:38;1.80;;;1.80;;
26594;SDS011;14238;49.496;8.154;2023-07-29T02:15:03;2.00;;;1.90;;
26594;SDS011;14238;49.496;8.154;2023-07-29T02:17:30;2.10;;;2.00;;
26594;SDS011;14238;49.496;8.154;2023-07-29T02:19:55;2.10;;;1.90;;
26594;SDS011;14238;49.496;8.154;2023-07-29T02:22:21;1.97;;;1.77;;
26594;SDS011;14238;49.496;8.154;2023-07-29T02:24:47;2.63;;;2.43;;
26594;SDS011;14238;49.496;8.154;2023-07-29T02:27:12;2.03;;;1.90;;
26594;SDS011;14238;49.496;8.154;2023-07-29T02:29:38;2.00;;;1.90;;
26594;SDS011;14238;49.496;8.154;2023-07-29T02:32:03;2.10;;;2.00;;
26594;SDS011;14238;49.496;8.154;2023-07-29T02:34:29;2.33;;;2.13;;
26594;SDS011;14238;49.496;8.154;2023-07-29T02:36:55;2.07;;;1.93;;
26594;SDS011;14238;49.496;8.154;2023-07-29T02:39:20;2.53;;;2.00;;
26594;SDS011;14238;49.496;8.154;2023-07-29T02:41:46;2.53;;;1.97;;
26594;SDS011;14238;49.496;8.154;2023-07-29T02:44:12;2.10;;;2.00;;
26594;SDS011;14238;49.496;8.154;2023-07-29T02:46:37;2.00;;;1.90;;
26594;SDS011;14238;49.496;8.154;2023-07-29T02:49:03;2.27;;;2.07;;
26594;SDS011;14238;49.496;8.154;2023-07-29T02:51:31;2.67;;;2.40;;
26594;SDS011;14238;49.496;8.154;2023-07-29T02:53:57;2.77;;;2.30;;
26594;SDS011;14238;49.496;8.154;2023-07-29T02:56:23;2.30;;;2.10;;
26594;SDS011;14238;49.496;8.154;2023-07-29T02:58:48;2.20;;;2.10;;
26594;SDS011;14238;49.496;8.154;2023-07-29T03:01:17;2.70;;;2.50;;
26594;SDS011;14238;49.496;8.154;2023-07-29T03:03:42;1.80;;;1.70;;
26594;SDS011;14238;49.496;8.154;2023-07-29T03:06:09;2.10;;;2.00;;
26594;SDS011;14238;49.496;8.154;2023-07-29T03:08:35;2.77;;;2.47;;
26594;SDS011;14238;49.496;8.154;2023-07-29T03:11:05;2.13;;;2.03;;
26594;SDS011;14238;49.496;8.154;2023-07-29T03:13:32;2.10;;;2.00;;
26594;SDS011;14238;49.496;8.154;2023-07-29T03:16:07;2.33;;;2.13;;
26594;SDS011;14238;49.496;8.154;2023-07-29T03:18:34;2.30;;;2.10;;
26594;SDS011;14238;49.496;8.154;2023-07-29T03:21:00;2.50;;;2.33;;
26594;SDS011;14238;49.496;8.154;2023-07-29T03:23:27;2.50;;;2.37;;
26594;SDS011;14238;49.496;8.154;2023-07-29T03:25:54;2.50;;;2.30;;
26594;SDS011;14238;49.496;8.154;2023-07-29T03:28:22;2.43;;;2.23;;
26594;SDS011;14238;49.496;8.154;2023-07-29T03:30:52;2.13;;;2.03;;
26594;SDS011;14238;49.496;8.154;2023-07-29T03:33:18;2.53;;;2.43;;
26594;SDS011;14238;49.496;8.154;2023-07-29T03:35:43;2.80;;;2.47;;
26594;SDS011;14238;49.496;8.154;2023-07-29T03:38:10;3.20;;;3.00;;
26594;SDS011;14238;49.496;8.154;2023-07-29T03:40:36;3.87;;;3.67;;
26594;SDS011;14238;49.496;8.154;2023-07-29T03:43:02;2.23;;;2.13;;
26594;SDS011;14238;49.496;8.154;2023-07-29T03:45:28;2.20;;;2.10;;
26594;SDS011;14238;49.496;8.154;2023-07-29T03:47:53;2.40;;;2.20;;
26594;SDS011;14238;49.496;8.154;2023-07-29T03:50:19;2.20;;;2.10;;
26594;SDS011;14238;49.496;8.154;2023-07-29T03:52:45;2.23;;;2.13;;
26594;SDS011;14238;49.496;8.154;2023-07-29T03:55:10;2.73;;;2.33;;
26594;SDS011;14238;49.496;8.154;2023-07-29T03:57:36;2.17;;;2.07;;
26594;SDS011;14238;49.496;8.154;2023-07-29T04:00:01;2.40;;;2.30;;
26594;SDS011;14238;49.496;8.154;2023-07-29T04:02:28;2.97;;;2.17;;
26594;SDS011;14238;49.496;8.154;2023-07-29T04:04:53;2.50;;;2.40;;
26594;SDS011;14238;49.496;8.154;2023-07-29T04:07:19;2.47;;;2.37;;
26594;SDS011;14238;49.496;8.154;2023-07-29T04:09:44;2.67;;;2.50;;
26594;SDS011;14238;49.496;8.154;2023-07-29T04:12:10;2.00;;;1.90;;
26594;SDS011;14238;49.496;8.154;2023-07-29T04:14:36;4.90;;;2.93;;
26594;SDS011;14238;49.496;8.154;2023-07-29T04:17:01;2.60;;;2.47;;
26594;SDS011;14238;49.496;8.154;2023-07-29T04:19:27;2.60;;;2.50;;
26594;SDS011;14238;49.496;8.154;2023-07-29T04:21:52;2.50;;;2.40;;
26594;SDS011;14238;49.496;8.154;2023-07-29T04:24:18;5.13;;;2.97;;
26594;SDS011;14238;49.496;8.154;2023-07-29T04:26:45;2.60;;;2.50;;
26594;SDS011;14238;49.496;8.154;2023-07-29T04:29:11;2.50;;;2.30;;
26594;SDS011;14238;49.496;8.154;2023-07-29T04:31:37;2.37;;;2.23;;
26594;SDS011;14238;49.496;8.154;2023-07-29T04:34:03;3.07;;;2.67;;
26594;SDS011;14238;49.496;8.154;2023-07-29T04:36:30;2.60;;;2.50;;
26594;SDS011;14238;49.496;8.154;2023-07-29T04:38:55;2.93;;;2.73;;
26594;SDS011;14238;49.496;8.154;2023-07-29T04:41:21;2.33;;;2.23;;
26594;SDS011;14238;49.496;8.154;2023-07-29T04:43:46;2.27;;;2.17;;
26594;SDS011;14238;49.496;8.154;2023-07-29T04:46:12;2.77;;;2.57;;
26594;SDS011;14238;49.496;8.154;2023-07-29T04:48:37;2.80;;;2.60;;
26594;SDS011;14238;49.496;8.154;2023-07-29T04:51:03;2.63;;;2.50;;
26594;SDS011;14238;49.496;8.154;2023-07-29T04:53:29;3.10;;;2.73;;
26594;SDS011;14238;49.496;8.154;2023-07-29T04:55:54;2.40;;;2.10;;
26594;SDS011;14238;49.496;8.154;2023-07-29T04:58:20;2.20;;;2.10;;
26594;SDS011;14238;49.496;8.154;2023-07-29T05:00:48;2.17;;;2.07;;
26594;SDS011;14238;49.496;8.154;2023-07-29T05:03:14;3.30;;;3.00;;
26594;SDS011;14238;49.496;8.154;2023-07-29T05:05:39;2.77;;;2.60;;
26594;SDS011;14238;49.496;8.154;2023-07-29T05:08:05;5.97;;;2.50;;
26594;SDS011;14238;49.496;8.154;2023-07-29T05:10:30;3.03;;;2.83;;
26594;SDS011;14238;49.496;8.154;2023-07-29T05:12:56;3.13;;;2.60;;
26594;SDS011;14238;49.496;8.154;2023-07-29T05:15:21;2.83;;;2.70;;
26594;SDS011;14238;49.496;8.154;2023-07-29T05:17:47;2.90;;;2.70;;
26594;SDS011;14238;49.496;8.154;2023-07-29T05:20:13;3.20;;;3.00;;
26594;SDS011;14238;49.496;8.154;2023-07-29T05:22:38;2.70;;;2.57;;
26594;SDS011;14238;49.496;8.154;2023-07-29T05:25:04;2.83;;;2.63;;
26594;SDS011;14238;49.496;8.154;2023-07-29T05:27:30;3.03;;;2.83;;
26594;SDS011;14238;49.496;8.154;2023-07-29T05:29:55;2.90;;;2.70;;
26594;SDS011;14238;49.496;8.154;2023-07-29T05:32:21;3.10;;;2.90;;
26594;SDS011;14238;49.496;8.154;2023-07-29T05:34:46;3.40;;;3.13;;
26594;SDS011;14238;49.496;8.154;2023-07-29T05:37:12;3.17;;;2.97;;
26594;SDS011;14238;49.496;8.154;2023-07-29T05:39:37;4.30;;;4.10;;
26594;SDS011;14238;49.496;8.154;2023-07-29T05:42:03;7.27;;;6.67;;
26594;SDS011;14238;49.496;8.154;2023-07-29T05:44:29;5.57;;;5.27;;
26594;SDS011;14238;49.496;8.154;2023-07-29T05:46:57;3.77;;;3.57;;
26594;SDS011;14238;49.496;8.154;2023-07-29T05:49:23;3.60;;;3.40;;
26594;SDS011;14238;49.496;8.154;2023-07-29T05:51:50;2.93;;;2.83;;
26594;SDS011;14238;49.496;8.154;2023-07-29T05:54:17;3.20;;;2.90;;
26594;SDS011;14238;49.496;8.154;2023-07-29T05:56:43;3.33;;;3.13;;
26594;SDS011;14238;49.496;8.154;2023-07-29T05:59:09;3.10;;;2.90;;
26594;SDS011;14238;49.496;8.154;2023-07-29T06:01:34;2.80;;;2.70;;
26594;SDS011;14238;49.496;8.154;2023-07-29T06:04:00;2.80;;;2.70;;
26594;SDS011;14238;49.496;8.154;2023-07-29T06:06:26;2.67;;;2.57;;
26594;SDS011;14238;49.496;8.154;2023-07-29T06:08:52;2.70;;;2.60;;
26594;SDS011;14238;49.496;8.154;2023-07-29T06:11:17;2.80;;;2.70;;
26594;SDS011;14238;49.496;8.154;2023-07-29T06:13:43;3.63;;;3.43;;
26594;SDS011;14238;49.496;8.154;2023-07-29T06:16:08;3.27;;;3.07;;
26594;SDS011;14238;49.496;8.154;2023-07-29T06:18:34;3.37;;;2.97;;
26594;SDS011;14238;49.496;8.154;2023-07-29T06:20:59;2.70;;;2.50;;
26594;SDS011;14238;49.496;8.154;2023-07-29T06:23:25;2.80;;;2.60;;
26594;SDS011;14238;49.496;8.154;2023-07-29T06:25:50;2.30;;;2.20;;
26594;SDS011;14238;49.496;8.154;2023-07-29T06:28:16;2.60;;;2.40;;
26594;SDS011;14238;49.496;8.154;2023-07-29T06:30:41;3.27;;;3.07;;
26594;SDS011;14238;49.496;8.154;2023-07-29T06:33:07;2.57;;;2.47;;
26594;SDS011;14238;49.496;8.154;2023-07-29T06:35:33;2.90;;;2.80;;
26594;SDS011;14238;49.496;8.154;2023-07-29T06:37:59;2.40;;;2.30;;
26594;SDS011;14238;49.496;8.154;2023-07-29T06:40:24;2.43;;;2.30;;
26594;SDS011;14238;49.496;8.154;2023-07-29T06:42:50;2.37;;;2.17;;
26594;SDS011;14238;49.496;8.154;2023-07-29T06:45:15;3.63;;;3.03;;
26594;SDS011;14238;49.496;8.154;2023-07-29T06:47:41;3.30;;;3.00;;
26594;SDS011;14238;49.496;8.154;2023-07-29T06:50:07;3.50;;;2.17;;
26594;SDS011;14238;49.496;8.154;2023-07-29T06:52:32;2.80;;;2.60;;
26594;SDS011;14238;49.496;8.154;2023-07-29T06:54:58;2.03;;;1.93;;
26594;SDS011;14238;49.496;8.154;2023-07-29T06:57:24;2.37;;;2.20;;
26594;SDS011;14238;49.496;8.154;2023-07-29T06:59:49;2.60;;;2.50;;
26594;SDS011;14238;49.496;8.154;2023-07-29T07:02:15;2.83;;;2.63;;
26594;SDS011;14238;49.496;8.154;2023-07-29T07:04:40;2.80;;;2.60;;
26594;SDS011;14238;49.496;8.154;2023-07-29T07:07:06;3.27;;;2.20;;
26594;SDS011;14238;49.496;8.154;2023-07-29T07:09:31;2.87;;;2.30;;
26594;SDS011;14238;49.496;8.154;2023-07-29T07:11:57;3.13;;;2.93;;
26594;SDS011;14238;49.496;8.154;2023-07-29T07:14:22;2.57;;;2.37;;
26594;SDS011;14238;49.496;8.154;2023-07-29T07:16:48;2.60;;;2.40;;
26594;SDS011;14238;49.496;8.154;2023-07-29T07:19:13;3.17;;;2.43;;
26594;SDS011;14238;49.496;8.154;2023-07-29T07:21:39;2.37;;;2.20;;
26594;SDS011;14238;49.496;8.154;2023-07-29T07:24:05;2.07;;;1.97;;
26594;SDS011;14238;49.496;8.154;2023-07-29T07:26:30;2.50;;;2.37;;
26594;SDS011;14238;49.496;8.154;2023-07-29T07:28:56;2.17;;;2.07;;
26594;SDS011;14238;49.496;8.154;2023-07-29T07:31:21;2.50;;;2.40;;
26594;SDS011;14238;49.496;8.154;2023-07-29T07:33:47;3.00;;;2.20;;
26594;SDS011;14238;49.496;8.154;2023-07-29T07:36:13;2.13;;;2.03;;
26594;SDS011;14238;49.496;8.154;2023-07-29T07:38:38;1.50;;;1.40;;
26594;SDS011;14238;49.496;8.154;2023-07-29T07:41:04;1.40;;;1.40;;
26594;SDS011;14238;49.496;8.154;2023-07-29T07:43:29;1.47;;;1.37;;
26594;SDS011;14238;49.496;8.154;2023-07-29T07:45:59;1.27;;;1.27;;
26594;SDS011;14238;49.496;8.154;2023-07-29T07:48:25;2.30;;;1.10;;
26594;SDS011;14238;49.496;8.154;2023-07-29T07:50:51;1.20;;;1.20;;
26594;SDS011;14238;49.496;8.154;2023-07-29T07:53:17;1.57;;;1.47;;
26594;SDS011;14238;49.496;8.154;2023-07-29T07:55:42;1.57;;;1.27;;
26594;SDS011;14238;49.496;8.154;2023-07-29T07:58:08;1.17;;;1.10;;
26594;SDS011;14238;49.496;8.154;2023-07-29T08:00:33;2.77;;;1.30;;
26594;SDS011;14238;49.496;8.154;2023-07-29T08:03:01;1.20;;;1.20;;
26594;SDS011;14238;49.496;8.154;2023-07-29T08:05:26;1.90;;;1.80;;
26594;SDS011;14238;49.496;8.154;2023-07-29T08:07:52;1.20;;;1.20;;
26594;SDS011;14238;49.496;8.154;2023-07-29T08:10:17;1.93;;;1.50;;
26594;SDS011;14238;49.496;8.154;2023-07-29T08:12:43;1.60;;;1.50;;
26594;SDS011;14238;49.496;8.154;2023-07-29T08:15:08;1.40;;;1.30;;
26594;SDS011;14238;49.496;8.154;2023-07-29T08:17:34;1.70;;;1.60;;
26594;SDS011;14238;49.496;8.154;2023-07-29T08:19:59;1.60;;;1.50;;
26594;SDS011;14238;49.496;8.154;2023-07-29T08:22:25;1.70;;;1.60;;
26594;SDS011;14238;49.496;8.154;2023-07-29T08:24:50;1.70;;;1.60;;
26594;SDS011;14238;49.496;8.154;2023-07-29T08:27:16;1.47;;;1.47;;
26594;SDS011;14238;49.496;8.154;2023-07-29T08:29:41;2.70;;;1.90;;
26594;SDS011;14238;49.496;8.154;2023-07-29T08:32:07;1.63;;;1.53;;
26594;SDS011;14238;49.496;8.154;2023-07-29T08:34:32;1.90;;;1.80;;
26594;SDS011;14238;49.496;8.154;2023-07-29T08:36:58;2.00;;;1.90;;
26594;SDS011;14238;49.496;8.154;2023-07-29T08:39:25;1.97;;;1.50;;
26594;SDS011;14238;49.496;8.154;2023-07-29T08:41:54;1.30;;;1.30;;
26594;SDS011;14238;49.496;8.154;2023-07-29T08:44:26;1.43;;;1.33;;
26594;SDS011;14238;49.496;8.154;2023-07-29T08:46:59;1.60;;;1.50;;
26594;SDS011;14238;49.496;8.154;2023-07-29T08:49:24;1.70;;;1.60;;
26594;SDS011;14238;49.496;8.154;2023-07-29T08:51:52;1.80;;;1.70;;
26594;SDS011;14238;49.496;8.154;2023-07-29T08:54:19;1.50;;;1.50;;
26594;SDS011;14238;49.496;8.154;2023-07-29T08:56:44;1.90;;;1.80;;
26594;SDS011;14238;49.496;8.154;2023-07-29T08:59:10;1.70;;;1.60;;
26594;SDS011;14238;49.496;8.154;2023-07-29T09:01:40;1.70;;;1.60;;
26594;SDS011;14238;49.496;8.154;2023-07-29T09:04:06;1.90;;;1.80;;
26594;SDS011;14238;49.496;8.154;2023-07-29T09:06:32;2.70;;;2.30;;
26594;SDS011;14238;49.496;8.154;2023-07-29T09:08:58;2.00;;;1.90;;
26594;SDS011;14238;49.496;8.154;2023-07-29T09:11:25;2.13;;;1.93;;
26594;SDS011;14238;49.496;8.154;2023-07-29T09:13:51;1.93;;;1.87;;
26594;SDS011;14238;49.496;8.154;2023-07-29T09:16:17;2.33;;;2.13;;
26594;SDS011;14238;49.496;8.154;2023-07-29T09:18:45;2.00;;;2.00;;
26594;SDS011;14238;49.496;8.154;2023-07-29T09:21:13;2.80;;;2.60;;
26594;SDS011;14238;49.496;8.154;2023-07-29T09:23:43;2.83;;;2.20;;
26594;SDS011;14238;49.496;8.154;2023-07-29T09:26:09;2.20;;;2.10;;
26594;SDS011;14238;49.496;8.154;2023-07-29T09:28:36;2.40;;;2.30;;
26594;SDS011;14238;49.496;8.154;2023-07-29T09:31:03;2.43;;;2.33;;
26594;SDS011;14238;49.496;8.154;2023-07-29T09:33:29;2.50;;;2.40;;
26594;SDS011;14238;49.496;8.154;2023-07-29T09:35:59;2.50;;;2.30;;
26594;SDS011;14238;49.496;8.154;2023-07-29T09:38:26;2.70;;;2.50;;
26594;SDS011;14238;49.496;8.154;2023-07-29T09:40:54;4.30;;;2.33;;
26594;SDS011;14238;49.496;8.154;2023-07-29T09:43:25;1.80;;;1.80;;
26594;SDS011;14238;49.496;8.154;2023-07-29T09:45:53;2.33;;;2.23;;
26594;SDS011;14238;49.496;8.154;2023-07-29T09:48:19;2.13;;;2.07;;
26594;SDS011;14238;49.496;8.154;2023-07-29T09:50:47;2.37;;;2.10;;
26594;SDS011;14238;49.496;8.154;2023-07-29T09:53:13;2.07;;;1.97;;
26594;SDS011;14238;49.496;8.154;2023-07-29T09:55:39;2.50;;;2.30;;
26594;SDS011;14238;49.496;8.154;2023-07-29T09:58:10;2.37;;;2.27;;
26594;SDS011;14238;49.496;8.154;2023-07-29T10:00:36;2.20;;;2.10;;
26594;SDS011;14238;49.496;8.154;2023-07-29T10:03:04;2.13;;;1.90;;
26594;SDS011;14238;49.496;8.154;2023-07-29T10:05:29;2.10;;;2.00;;
26594;SDS011;14238;49.496;8.154;2023-07-29T10:07:55;1.77;;;1.67;;
26594;SDS011;14238;49.496;8.154;2023-07-29T10:10:22;1.93;;;1.93;;
26594;SDS011;14238;49.496;8.154;2023-07-29T10:12:48;2.30;;;2.20;;
26594;SDS011;14238;49.496;8.154;2023-07-29T10:15:15;2.80;;;2.60;;
26594;SDS011;14238;49.496;8.154;2023-07-29T10:17:40;2.30;;;2.20;;
26594;SDS011;14238;49.496;8.154;2023-07-29T10:20:07;2.30;;;2.20;;
26594;SDS011;14238;49.496;8.154;2023-07-29T10:22:43;2.43;;;2.23;;
26594;SDS011;14238;49.496;8.154;2023-07-29T10:25:18;2.40;;;2.30;;
26594;SDS011;14238;49.496;8.154;2023-07-29T10:27:47;2.40;;;2.30;;
26594;SDS011;14238;49.496;8.154;2023-07-29T10:30:16;2.47;;;2.27;;
26594;SDS011;14238;49.496;8.154;2023-07-29T10:32:43;1.73;;;1.73;;
26594;SDS011;14238;49.496;8.154;2023-07-29T10:35:09;2.00;;;1.83;;
26594;SDS011;14238;49.496;8.154;2023-07-29T10:37:39;1.90;;;1.80;;
26594;SDS011;14238;49.496;8.154;2023-07-29T10:40:07;2.90;;;2.70;;
26594;SDS011;14238;49.496;8.154;2023-07-29T10:42:35;2.20;;;2.00;;
26594;SDS011;14238;49.496;8.154;2023-07-29T10:45:17;2.13;;;2.03;;
26594;SDS011;14238;49.496;8.154;2023-07-29T10:47:47;1.67;;;1.57;;
26594;SDS011;14238;49.496;8.154;2023-07-29T10:50:20;2.00;;;1.90;;
26594;SDS011;14238;49.496;8.154;2023-07-29T10:52:50;2.27;;;2.10;;
26594;SDS011;14238;49.496;8.154;2023-07-29T10:55:30;2.40;;;2.20;;
26594;SDS011;14238;49.496;8.154;2023-07-29T10:58:08;2.23;;;2.03;;
26594;SDS011;14238;49.496;8.154;2023-07-29T11:00:38;2.23;;;2.13;;
26594;SDS011;14238;49.496;8.154;2023-07-29T11:03:06;2.27;;;2.07;;
26594;SDS011;14238;49.496;8.154;2023-07-29T11:05:43;2.90;;;1.90;;
26594;SDS011;14238;49.496;8.154;2023-07-29T11:08:17;2.63;;;1.90;;
26594;SDS011;14238;49.496;8.154;2023-07-29T11:10:44;2.77;;;2.07;;
26594;SDS011;14238;49.496;8.154;2023-07-29T11:13:21;2.50;;;2.00;;
26594;SDS011;14238;49.496;8.154;2023-07-29T11:15:47;3.33;;;1.40;;
26594;SDS011;14238;49.496;8.154;2023-07-29T11:18:15;5.03;;;2.07;;
26594;SDS011;14238;49.496;8.154;2023-07-29T11:20:41;1.67;;;1.57;;
26594;SDS011;14238;49.496;8.154;2023-07-29T11:23:06;1.77;;;1.67;;
26594;SDS011;14238;49.496;8.154;2023-07-29T11:25:32;1.70;;;1.60;;
26594;SDS011;14238;49.496;8.154;2023-07-29T11:28:01;1.60;;;1.50;;
26594;SDS011;14238;49.496;8.154;2023-07-29T11:30:26;2.37;;;2.27;;
26594;SDS011;14238;49.496;8.154;2023-07-29T11:32:52;1.90;;;1.80;;
26594;SDS011;14238;49.496;8.154;2023-07-29T11:35:20;2.30;;;2.10;;
26594;SDS011;14238;49.496;8.154;2023-07-29T11:37:46;1.73;;;1.63;;
26594;SDS011;14238;49.496;8.154;2023-07-29T11:40:14;2.00;;;1.90;;
26594;SDS011;14238;49.496;8.154;2023-07-29T11:42:47;2.80;;;2.57;;
26594;SDS011;14238;49.496;8.154;2023-07-29T11:45:15;1.90;;;1.80;;
26594;SDS011;14238;49.496;8.154;2023-07-29T11:47:41;2.03;;;1.67;;
26594;SDS011;14238;49.496;8.154;2023-07-29T11:50:07;2.60;;;1.77;;
26594;SDS011;14238;49.496;8.154;2023-07-29T11:52:34;2.03;;;1.90;;
26594;SDS011;14238;49.496;8.154;2023-07-29T11:55:05;2.20;;;1.80;;
26594;SDS011;14238;49.496;8.154;2023-07-29T11:57:31;2.33;;;2.07;;
26594;SDS011;14238;49.496;8.154;2023-07-29T12:00:01;2.07;;;1.97;;
26594;SDS011;14238;49.496;8.154;2023-07-29T12:02:31;1.70;;;1.60;;
26594;SDS011;14238;49.496;8.154;2023-07-29T12:05:00;1.80;;;1.70;;
26594;SDS011;14238;49.496;8.154;2023-07-29T12:07:28;2.10;;;2.00;;
26594;SDS011;14238;49.496;8.154;2023-07-29T12:09:53;1.50;;;1.50;;
26594;SDS011;14238;49.496;8.154;2023-07-29T12:12:19;2.13;;;2.03;;
26594;SDS011;14238;49.496;8.154;2023-07-29T12:14:47;1.90;;;1.80;;
26594;SDS011;14238;49.496;8.154;2023-07-29T12:17:14;2.60;;;2.30;;
26594;SDS011;14238;49.496;8.154;2023-07-29T12:19:39;1.43;;;1.43;;
26594;SDS011;14238;49.496;8.154;2023-07-29T12:22:07;1.80;;;1.70;;
26594;SDS011;14238;49.496;8.154;2023-07-29T12:24:37;1.50;;;1.50;;
26594;SDS011;14238;49.496;8.154;2023-07-29T12:27:04;1.70;;;1.60;;
26594;SDS011;14238;49.496;8.154;2023-07-29T12:29:30;2.73;;;1.90;;
26594;SDS011;14238;49.496;8.154;2023-07-29T12:31:59;1.80;;;1.77;;
26594;SDS011;14238;49.496;8.154;2023-07-29T12:34:29;1.90;;;1.80;;
26594;SDS011;14238;49.496;8.154;2023-07-29T12:36:56;2.60;;;1.60;;
26594;SDS011;14238;49.496;8.154;2023-07-29T12:39:24;1.73;;;1.63;;
26594;SDS011;14238;49.496;8.154;2023-07-29T12:41:54;1.70;;;1.60;;
26594;SDS011;14238;49.496;8.154;2023-07-29T12:44:22;3.10;;;2.03;;
26594;SDS011;14238;49.496;8.154;2023-07-29T12:46:48;1.97;;;1.77;;
26594;SDS011;14238;49.496;8.154;2023-07-29T12:49:14;1.70;;;1.60;;
26594;SDS011;14238;49.496;8.154;2023-07-29T12:51:40;1.90;;;1.80;;
26594;SDS011;14238;49.496;8.154;2023-07-29T12:54:05;5.60;;;2.07;;
26594;SDS011;14238;49.496;8.154;2023-07-29T12:56:31;2.13;;;2.03;;
26594;SDS011;14238;49.496;8.154;2023-07-29T12:58:57;1.90;;;1.87;;
26594;SDS011;14238;49.496;8.154;2023-07-29T13:01:23;2.73;;;2.63;;
26594;SDS011;14238;49.496;8.154;2023-07-29T13:03:51;1.80;;;1.70;;
26594;SDS011;14238;49.496;8.154;2023-07-29T13:06:16;1.80;;;1.70;;
26594;SDS011;14238;49.496;8.154;2023-07-29T13:08:42;1.90;;;1.80;;
26594;SDS011;14238;49.496;8.154;2023-07-29T13:11:09;1.40;;;1.40;;
26594;SDS011;14238;49.496;8.154;2023-07-29T13:13:34;1.87;;;1.77;;
26594;SDS011;14238;49.496;8.154;2023-07-29T13:16:00;1.67;;;1.67;;
26594;SDS011;14238;49.496;8.154;2023-07-29T13:18:26;2.60;;;1.70;;
26594;SDS011;14238;49.496;8.154;2023-07-29T13:20:52;1.90;;;1.70;;
26594;SDS011;14238;49.496;8.154;2023-07-29T13:23:17;1.90;;;1.80;;
26594;SDS011;14238;49.496;8.154;2023-07-29T13:25:43;1.90;;;1.80;;
26594;SDS011;14238;49.496;8.154;2023-07-29T13:28:09;1.93;;;1.83;;
26594;SDS011;14238;49.496;8.154;2023-07-29T13:30:35;1.70;;;1.60;;
26594;SDS011;14238;49.496;8.154;2023-07-29T13:33:01;2.47;;;2.27;;
26594;SDS011;14238;49.496;8.154;2023-07-29T13:35:27;1.53;;;1.47;;
26594;SDS011;14238;49.496;8.154;2023-07-29T13:37:53;1.70;;;1.60;;
26594;SDS011;14238;49.496;8.154;2023-07-29T13:40:19;1.80;;;1.70;;
26594;SDS011;14238;49.496;8.154;2023-07-29T13:42:44;2.00;;;1.90;;
26594;SDS011;14238;49.496;8.154;2023-07-29T13:45:10;1.60;;;1.57;;
26594;SDS011;14238;49.496;8.154;2023-07-29T13:47:36;2.60;;;2.00;;
26594;SDS011;14238;49.496;8.154;2023-07-29T13:50:02;1.67;;;1.67;;
26594;SDS011;14238;49.496;8.154;2023-07-29T13:52:28;2.10;;;2.00;;
26594;SDS011;14238;49.496;8.154;2023-07-29T13:54:54;2.30;;;2.20;;
26594;SDS011;14238;49.496;8.154;2023-07-29T13:57:19;2.00;;;1.90;;
26594;SDS011;14238;49.496;8.154;2023-07-29T13:59:45;1.70;;;1.60;;
26594;SDS011;14238;49.496;8.154;2023-07-29T14:02:10;2.17;;;1.63;;
26594;SDS011;14238;49.496;8.154;2023-07-29T14:04:36;1.87;;;1.77;;
26594;SDS011;14238;49.496;8.154;2023-07-29T14:07:02;2.07;;;1.80;;
26594;SDS011;14238;49.496;8.154;2023-07-29T14:09:27;2.63;;;2.43;;
26594;SDS011;14238;49.496;8.154;2023-07-29T14:11:54;2.50;;;1.57;;
26594;SDS011;14238;49.496;8.154;2023-07-29T14:14:19;2.40;;;1.80;;
26594;SDS011;14238;49.496;8.154;2023-07-29T14:16:45;1.67;;;1.57;;
26594;SDS011;14238;49.496;8.154;2023-07-29T14:19:11;2.03;;;1.93;;
26594;SDS011;14238;49.496;8.154;2023-07-29T14:21:37;2.20;;;1.83;;
26594;SDS011;14238;49.496;8.154;2023-07-29T14:24:03;1.80;;;1.67;;
26594;SDS011;14238;49.496;8.154;2023-07-29T14:26:28;1.90;;;1.60;;
26594;SDS011;14238;49.496;8.154;2023-07-29T14:28:54;2.40;;;2.20;;
26594;SDS011;14238;49.496;8.154;2023-07-29T14:31:19;1.87;;;1.70;;
26594;SDS011;14238;49.496;8.154;2023-07-29T14:33:45;1.87;;;1.70;;
26594;SDS011;14238;49.496;8.154;2023-07-29T14:36:10;1.67;;;1.57;;
26594;SDS011;14238;49.496;8.154;2023-07-29T14:38:36;4.93;;;2.00;;
26594;SDS011;14238;49.496;8.154;2023-07-29T14:41:02;2.10;;;2.00;;
26594;SDS011;14238;49.496;8.154;2023-07-29T14:43:29;1.90;;;1.80;;
26594;SDS011;14238;49.496;8.154;2023-07-29T14:45:55;2.30;;;2.20;;
26594;SDS011;14238;49.496;8.154;2023-07-29T14:48:21;1.70;;;1.60;;